Time;durP1;ratioP1;P1;durP2;ratioP2;P2;SDS_P1;SDS_P2;PMS_P1;PMS_P2;Temp;Humidity;BMP_temperature;BMP_pressure;BME280_temperature;BME280_humidity;BME280_pressure;Samples;Min_cycle;Max_cycle;Signal;HPM_P1;HPM_P2
2022/11/19 01:03:00;;;;;;;6.60;4.78;;;-0.30;99.90;;;;;;6275429;22;20019;-96
2022/11/19 01:31:07;;;;;;;7.93;4.95;;;1.70;99.90;;;;;;6223566;22;20171;-96
2022/11/19 01:52:46;;;;;;;;;;;;;;;;;;;;;
2022/11/19 01:56:38;;;;;;;11.98;5.10;;;-0.50;99.90;;;;;;6234590;23;19923;-96
2022/11/19 02:04:50;;;;;;;7.55;4.35;;;-0.60;99.90;;;;;;6279651;22;20430;-95
2022/11/19 02:12:03;;;;;;;5.47;3.40;;;-0.70;99.90;;;;;;6256959;22;20012;-96
2022/11/19 02:54:21;;;;;;;7.63;3.60;;;-1.90;99.90;;;;;;6265391;22;20019;-96
2022/11/19 03:19:36;;;;;;;7.20;4.40;;;-1.40;99.90;;;;;;6195141;23;20016;-96
2022/11/19 03:31:31;;;;;;;8.57;4.60;;;-1.70;99.90;;;;;;6265732;22;20075;-96
2022/11/19 03:56:14;;;;;;;;;;;;;;;;;;;;;
2022/11/19 04:11:03;;;;;;;7.30;4.18;;;-1.60;99.90;;;;;;6265139;22;20034;-96
2022/11/19 04:23:04;;;;;;;7.70;4.18;;;-1.60;99.90;;;;;;6250820;22;20004;-96
2022/11/19 04:29:04;;;;;;;5.95;3.83;;;-0.40;99.90;;;;;;6265400;22;20026;-95
2022/11/19 04:35:36;;;;;;;8.52;3.80;;;-1.60;99.90;;;;;;6294469;22;20019;-96
2022/11/19 04:43:04;;;;;;;;;;;;;;;;;;;;;
2022/11/19 04:52:20;;;;;;;7.88;4.10;;;-0.80;99.90;;;;;;6199433;23;20076;-96
2022/11/19 05:02:13;;;;;;;7.38;4.25;;;-1.70;99.90;;;;;;6204696;23;20020;-96
2022/11/19 05:07:53;;;;;;;10.48;5.05;;;-1.70;99.90;;;;;;6222446;23;20031;-96
2022/11/19 05:14:26;;;;;;;6.60;4.20;;;-1.70;99.90;;;;;;6236018;23;20075;-96
2022/11/19 05:20:54;;;;;;;9.70;4.78;;;-2.20;99.90;;;;;;6205572;23;20112;-96
2022/11/19 05:34:16;;;;;;;9.27;4.22;;;-1.50;99.90;;;;;;6234365;23;20035;-96
2022/11/19 05:41:11;;;;;;;8.38;4.25;;;-1.70;99.90;;;;;;6231264;23;20068;-96
2022/11/19 05:43:55;;;;;;;9.18;3.97;;;-2.50;99.90;;;;;;6209557;23;20008;-96
2022/11/19 05:53:31;;;;;;;7.78;4.38;;;-0.80;99.90;;;;;;6202359;23;20020;-96
2022/11/19 06:04:23;;;;;;;7.57;3.92;;;-1.90;99.90;;;;;;6237505;23;20064;-96
2022/11/19 06:10:52;;;;;;;6.15;4.00;;;-1.70;99.90;;;;;;6227717;23;20513;-96
2022/11/19 06:13:22;;;;;;;6.93;4.32;;;-3.20;99.90;;;;;;6147269;23;20023;-96
2022/11/19 06:19:33;;;;;;;6.50;4.00;;;-0.70;99.90;;;;;;6226997;23;20016;-96
2022/11/19 06:25:21;;;;;;;8.77;3.83;;;-0.20;99.90;;;;;;6224535;23;20466;-96
2022/11/19 06:28:10;;;;;;;7.43;3.97;;;-2.00;99.90;;;;;;6173021;23;20016;-96
2022/11/19 06:34:44;;;;;;;7.43;4.32;;;-2.00;99.90;;;;;;6223561;23;20598;-96
2022/11/19 06:37:37;;;;;;;6.85;4.05;;;;;;;;;;6167905;23;20094;-96
2022/11/19 06:40:25;;;;;;;7.95;4.32;;;-1.90;99.90;;;;;;6192893;23;20016;-96
2022/11/19 06:43:00;;;;;;;7.80;4.20;;;-3.20;99.90;;;;;;6193621;23;20076;-96
2022/11/19 06:45:54;;;;;;;6.60;4.03;;;-2.20;99.90;;;;;;6145720;23;20020;-96
2022/11/19 06:48:23;;;;;;;6.90;4.28;;;-2.10;99.90;;;;;;6183812;23;20028;-96
2022/11/19 06:51:28;;;;;;;;;;;;;;;;;;;;;
2022/11/19 06:55:29;;;;;;;;;;;;;;;;;;;;;
2022/11/19 07:02:22;;;;;;;;;;;;;;;;;;;;;
2022/11/19 07:05:16;;;;;;;6.18;4.10;;;-2.00;99.90;;;;;;6151512;23;20017;-96
2022/11/19 07:08:34;;;;;;;;;;;;;;;;;;;;;
2022/11/19 07:11:52;;;;;;;;;;;;;;;;;;;;;
2022/11/19 07:15:08;;;;;;;;;;;;;;;;;;;;;
2022/11/19 07:18:32;;;;;;;;;;;;;;;;;;;;;
2022/11/19 07:25:28;;;;;;;;;;;;;;;;;;;;;
2022/11/19 07:28:43;;;;;;;;;;;;;;;;;;;;;
2022/11/19 07:31:52;;;;;;;;;;;;;;;;;;;;;
2022/11/19 07:35:15;;;;;;;;;;;;;;;;;;;;;
2022/11/19 07:37:58;;;;;;;9.35;4.18;;;-1.80;99.90;;;;;;6111446;23;20025;-96
2022/11/19 07:44:45;;;;;;;;;;;;;;;;;;;;;
2022/11/19 07:48:10;;;;;;;;;;;;;;;;;;;;;
2022/11/19 07:51:32;;;;;;;8.52;4.40;;;-1.70;99.90;;;;;;6209884;23;20099;-96
2022/11/19 07:57:16;;;;;;;;;;;;;;;;;;;;;
2022/11/19 08:00:41;;;;;;;;;;;;;;;;;;;;;
2022/11/19 08:03:41;;;;;;;;;;;;;;;;;;;;;
2022/11/19 08:06:49;;;;;;;;;;;;;;;;;;;;;
2022/11/19 08:10:05;;;;;;;;;;;;;;;;;;;;;
2022/11/19 08:19:14;;;;;;;6.75;4.22;;;-1.30;99.90;;;;;;6068967;23;20038;-95
2022/11/19 08:21:47;;;;;;;8.15;4.65;;;-1.40;99.90;;;;;;6093246;23;20529;-96
2022/11/19 08:24:40;;;;;;;7.35;4.68;;;-1.30;99.90;;;;;;6188657;23;20052;-96
2022/11/19 08:27:36;;;;;;;;;;;;;;;;;;;;;
2022/11/19 08:30:05;;;;;;;7.55;4.82;;;-1.20;99.90;;;;;;6190970;23;20017;-96
2022/11/19 08:36:20;;;;;;;7.32;4.47;;;-1.00;99.90;;;;;;6213428;23;20099;-96
2022/11/19 08:53:34;;;;;;;8.60;4.32;;;-0.60;99.90;;;;;;6215024;23;20084;-96
2022/11/19 08:56:12;;;;;;;8.43;4.65;;;;;;;;;;6188092;23;20016;-96
2022/11/19 08:59:16;;;;;;;7.50;4.70;;;-0.60;99.90;;;;;;6188753;23;20025;-95
2022/11/19 09:02:01;;;;;;;8.10;4.35;;;-0.10;99.90;;;;;;6188643;23;20116;-96
2022/11/19 09:08:02;;;;;;;7.18;4.60;;;-0.50;99.90;;;;;;6211823;23;20100;-96
2022/11/19 09:14:13;;;;;;;7.10;4.38;;;0.50;99.90;;;;;;6214827;23;20021;-96
2022/11/19 09:17:00;;;;;;;7.75;5.25;;;0.00;99.90;;;;;;6163476;23;20477;-96
2022/11/19 09:22:51;;;;;;;10.20;4.80;;;0.10;99.90;;;;;;6215492;23;20017;-94
2022/11/19 09:29:05;;;;;;;9.00;5.35;;;0.00;99.90;;;;;;6189269;23;20056;-94
2022/11/19 09:31:35;;;;;;;8.50;4.75;;;0.40;99.90;;;;;;6191026;23;20024;-95
2022/11/19 09:34:02;;;;;;;7.82;4.80;;;0.00;99.90;;;;;;6166442;23;20050;-93
2022/11/19 09:36:28;;;;;;;7.28;4.63;;;0.20;99.90;;;;;;6167185;23;20359;-96
2022/11/19 09:39:01;;;;;;;7.45;4.80;;;0.10;99.90;;;;;;6168260;23;20097;-96
2022/11/19 09:42:10;;;;;;;6.70;4.50;;;0.40;99.90;;;;;;6143816;23;20017;-95
2022/11/19 09:45:14;;;;;;;7.38;4.78;;;0.40;99.90;;;;;;6190750;23;20020;-95
2022/11/19 09:48:09;;;;;;;8.85;4.43;;;0.60;99.90;;;;;;6189855;23;20021;-96
2022/11/19 09:50:53;;;;;;;6.72;4.10;;;0.40;99.90;;;;;;6188943;23;20021;-96
2022/11/19 09:53:28;;;;;;;6.88;4.40;;;0.40;99.90;;;;;;6165039;23;20454;-96
2022/11/19 09:55:59;;;;;;;7.07;4.75;;;0.70;99.90;;;;;;6165428;23;20017;-95
2022/11/19 09:58:44;;;;;;;6.88;4.35;;;0.40;99.90;;;;;;6166185;23;20487;-95
2022/11/19 10:01:31;;;;;;;6.57;4.30;;;0.90;99.90;;;;;;6139841;23;20023;-96
2022/11/19 10:04:27;;;;;;;6.15;4.35;;;0.60;99.90;;;;;;6140261;23;20013;-95
2022/11/19 10:07:31;;;;;;;6.75;4.20;;;0.70;99.90;;;;;;6166232;23;20020;-94
2022/11/19 10:13:45;;;;;;;6.30;3.83;;;0.50;99.90;;;;;;6193804;23;20021;-95
2022/11/19 10:16:48;;;;;;;5.70;3.70;;;-0.60;99.90;;;;;;6191117;23;20056;-95
2022/11/19 10:19:20;;;;;;;7.60;4.65;;;0.70;99.90;;;;;;6189811;23;20020;-96
2022/11/19 10:21:59;;;;;;;7.88;4.75;;;0.90;99.90;;;;;;6191358;23;20111;-96
2022/11/19 10:24:46;;;;;;;6.88;3.80;;;0.80;99.90;;;;;;6188933;23;20017;-96
2022/11/19 10:27:51;;;;;;;6.95;3.80;;;1.00;99.90;;;;;;6163802;23;20016;-95
2022/11/19 10:34:22;;;;;;;7.07;4.47;;;1.80;99.90;;;;;;6189127;23;20032;-93
2022/11/19 10:40:22;;;;;;;6.28;4.00;;;1.10;99.90;;;;;;6187229;23;20025;-95
2022/11/19 10:43:11;;;;;;;;;;;1.10;99.90;;;;;;6163204;23;20017;-96
2022/11/19 10:45:46;;;;;;;6.85;4.05;;;0.20;99.90;;;;;;6184918;23;20327;-96
2022/11/19 10:48:20;;;;;;;6.75;4.15;;;1.30;99.90;;;;;;6162274;23;20042;-96
2022/11/19 10:51:00;;;;;;;6.35;4.38;;;1.20;99.90;;;;;;6186207;23;20024;-96
2022/11/19 10:53:35;;;;;;;6.50;3.63;;;1.30;99.90;;;;;;6139088;23;20016;-96
2022/11/19 10:56:34;;;;;;;6.70;4.17;;;1.20;99.90;;;;;;6165681;23;20103;-96
2022/11/19 10:59:35;;;;;;;6.03;3.53;;;1.30;99.90;;;;;;6163732;23;20020;-96
2022/11/19 11:02:38;;;;;;;8.57;3.83;;;1.30;99.90;;;;;;6140913;23;20024;-94
2022/11/19 11:05:14;;;;;;;6.40;3.80;;;1.40;99.90;;;;;;6191387;23;20578;-95
2022/11/19 11:07:47;;;;;;;7.82;4.15;;;1.40;99.90;;;;;;6166427;23;20028;-95
2022/11/19 11:10:34;;;;;;;6.57;3.95;;;1.50;99.90;;;;;;6167892;23;20451;-96
2022/11/19 11:20:04;;;;;;;4.78;2.85;;;1.70;99.90;;;;;;6190601;23;20028;-94
2022/11/19 11:23:02;;;;;;;4.85;2.72;;;1.80;99.90;;;;;;6164708;23;20309;-94
2022/11/19 11:26:06;;;;;;;6.93;3.72;;;3.00;99.90;;;;;;6165848;23;20024;-94
2022/11/19 11:29:10;;;;;;;4.70;3.05;;;1.80;99.90;;;;;;6167883;23;20020;-96
2022/11/19 11:31:42;;;;;;;4.85;3.15;;;1.80;99.90;;;;;;6188392;23;20103;-96
2022/11/19 11:34:35;;;;;;;4.93;3.10;;;2.00;99.90;;;;;;6160436;23;20502;-95
2022/11/19 11:37:10;;;;;;;4.45;2.85;;;1.90;99.90;;;;;;6166523;23;20028;-96
2022/11/19 11:47:20;;;;;;;6.72;3.10;;;2.10;99.90;;;;;;6214690;23;20051;-95
2022/11/19 11:50:18;;;;;;;4.70;3.45;;;1.40;99.90;;;;;;6187981;23;20056;-96
2022/11/19 11:56:08;;;;;;;6.18;3.90;;;2.10;99.90;;;;;;6188453;23;20100;-96
2022/11/19 11:58:34;;;;;;;4.70;2.95;;;2.10;99.90;;;;;;6162735;23;20020;-95
2022/11/19 12:01:14;;;;;;;6.35;3.47;;;2.20;99.90;;;;;;6139923;23;20052;-96
2022/11/19 12:03:56;;;;;;;4.72;2.95;;;2.20;99.90;;;;;;6162156;23;20082;-95
2022/11/19 12:06:55;;;;;;;5.80;3.30;;;2.20;99.90;;;;;;6163763;23;20400;-96
2022/11/19 12:10:02;;;;;;;5.40;3.58;;;2.20;99.90;;;;;;6141529;23;20048;-95
2022/11/19 12:12:37;;;;;;;5.88;3.17;;;2.20;99.90;;;;;;6157531;23;20024;-95
2022/11/19 12:15:05;;;;;;;5.13;2.90;;;2.20;99.90;;;;;;6187971;23;20593;-94
2022/11/19 12:18:09;;;;;;;4.65;3.17;;;2.10;99.90;;;;;;6185754;23;20080;-96
2022/11/19 12:21:13;;;;;;;5.60;3.58;;;2.20;99.90;;;;;;6159680;23;20059;-96
2022/11/19 12:24:18;;;;;;;5.40;3.55;;;2.20;99.90;;;;;;6188014;23;20020;-96
2022/11/19 12:26:54;;;;;;;6.07;3.25;;;2.30;99.90;;;;;;6187616;23;20028;-95
2022/11/19 12:30:06;;;;;;;5.10;3.28;;;2.30;99.90;;;;;;6188334;23;20013;-94
2022/11/19 12:33:19;;;;;;;6.53;3.42;;;2.30;99.90;;;;;;6188052;23;20017;-94
2022/11/19 12:36:10;;;;;;;5.03;3.25;;;2.30;99.90;;;;;;6044518;23;20109;-95
2022/11/19 12:39:24;;;;;;;;;;;;;;;;;;;;;
2022/11/19 12:42:26;;;;;;;5.32;3.42;;;2.40;99.90;;;;;;6187432;23;20048;-95
2022/11/19 12:45:15;;;;;;;5.40;3.40;;;2.50;99.90;;;;;;6165587;23;20024;-94
2022/11/19 12:48:08;;;;;;;5.07;2.70;;;2.50;99.90;;;;;;6190534;23;20725;-93
2022/11/19 12:51:12;;;;;;;5.68;3.28;;;2.50;99.90;;;;;;6190846;23;20020;-94
2022/11/19 12:57:49;;;;;;;6.82;3.45;;;2.60;99.90;;;;;;6193553;23;20027;-95
2022/11/19 13:00:36;;;;;;;4.97;3.38;;;2.70;99.90;;;;;;6190006;23;20099;-96
2022/11/19 13:03:20;;;;;;;5.40;3.05;;;2.70;99.90;;;;;;6168010;23;20023;-94
2022/11/19 13:09:27;;;;;;;4.50;3.00;;;2.70;99.90;;;;;;6191392;23;20031;-94
2022/11/19 13:12:14;;;;;;;;;;;;;;;;;;;;;
2022/11/19 13:14:49;;;;;;;5.55;3.00;;;2.80;99.90;;;;;;6192558;23;20013;-93
2022/11/19 13:21:02;;;;;;;5.97;3.60;;;2.70;99.90;;;;;;6216335;23;20015;-94
2022/11/19 13:27:12;;;;;;;8.52;3.67;;;2.70;99.90;;;;;;6190741;23;20020;-93
2022/11/19 13:30:07;;;;;;;5.13;3.30;;;2.70;99.90;;;;;;6165427;23;20024;-96
2022/11/19 13:33:16;;;;;;;5.35;2.90;;;2.60;99.90;;;;;;6164670;23;20021;-94
2022/11/19 13:36:05;;;;;;;;;;;;;;;;;;;;;
2022/11/19 13:38:49;;;;;;;5.35;3.15;;;2.50;99.90;;;;;;6190093;23;20013;-94
2022/11/19 13:44:37;;;;;;;5.45;2.97;;;2.40;99.90;;;;;;6189672;23;20027;-94
2022/11/19 13:44:39;;;;;;;5.07;3.20;;;2.40;99.90;;;;;;6189413;23;20104;-94
2022/11/19 13:47:18;;;;;;;5.88;3.35;;;2.40;99.90;;;;;;6144294;23;20024;-96
2022/11/19 13:53:02;;;;;;;7.32;3.40;;;2.40;99.90;;;;;;6213866;23;19951;-95
2022/11/19 13:55:38;;;;;;;6.38;3.45;;;2.30;99.90;;;;;;6191425;23;20021;-95
2022/11/19 13:58:20;;;;;;;6.05;3.28;;;2.40;99.90;;;;;;6143873;23;20012;-96
2022/11/19 14:01:26;;;;;;;;;;;;;;;;;;;;;
2022/11/19 14:04:02;;;;;;;5.03;3.10;;;2.30;99.90;;;;;;6219038;23;20016;-94
2022/11/19 14:06:45;;;;;;;5.63;3.22;;;2.30;99.90;;;;;;6168190;23;20025;-94
2022/11/19 14:13:18;;;;;;;6.60;3.28;;;2.30;99.90;;;;;;6189837;23;20043;-94
2022/11/19 14:26:27;;;;;;;6.63;3.70;;;2.30;99.90;;;;;;6193560;23;20021;-96
2022/11/19 14:29:14;;;;;;;6.28;3.85;;;2.10;99.90;;;;;;6193613;23;20154;-94
2022/11/19 14:35:47;;;;;;;5.88;3.75;;;2.80;99.90;;;;;;6188403;23;20079;-95
2022/11/19 14:39:01;;;;;;;7.18;3.95;;;2.20;99.90;;;;;;6188319;23;20016;-96
2022/11/19 14:41:36;;;;;;;6.50;4.32;;;2.00;99.90;;;;;;6149630;23;20032;-96
2022/11/19 14:44:31;;;;;;;6.80;4.43;;;1.90;99.90;;;;;;6163089;23;20464;-95
2022/11/19 14:47:30;;;;;;;8.18;4.25;;;1.90;99.90;;;;;;6183817;23;20025;-96
2022/11/19 14:50:29;;;;;;;;;;;;;;;;;;;;;
2022/11/19 14:53:03;;;;;;;;;;;1.80;99.90;;;;;;6180341;23;20025;-96
2022/11/19 14:55:43;;;;;;;;;;;;;;;;;;;;;
2022/11/19 14:58:32;;;;;;;6.88;3.60;;;1.60;99.90;;;;;;6163811;23;20016;-96
2022/11/19 15:01:15;;;;;;;5.00;3.40;;;1.60;99.90;;;;;;6137966;23;20025;-95
2022/11/19 15:03:58;;;;;;;7.38;4.18;;;0.70;99.90;;;;;;6162193;23;20052;-96
2022/11/19 15:06:35;;;;;;;6.05;3.67;;;1.50;99.90;;;;;;6161838;23;20103;-96
2022/11/19 15:09:05;;;;;;;5.25;3.35;;;1.60;99.90;;;;;;6139021;23;20016;-95
2022/11/19 15:12:09;;;;;;;6.57;4.00;;;1.40;99.90;;;;;;6137619;23;20021;-95
2022/11/19 15:15:26;;;;;;;;;;;;;;;;;;;;;
2022/11/19 15:18:18;;;;;;;7.47;4.18;;;1.30;99.90;;;;;;6186158;23;20043;-95
2022/11/19 15:21:08;;;;;;;7.72;3.67;;;1.30;99.90;;;;;;6186423;23;20024;-95
2022/11/19 15:23:57;;;;;;;6.30;3.40;;;1.20;99.90;;;;;;6188330;23;20083;-95
2022/11/19 15:26:41;;;;;;;5.70;3.53;;;2.50;99.90;;;;;;6162872;23;20090;-95
2022/11/19 15:29:51;;;;;;;5.85;3.47;;;1.00;99.90;;;;;;6187889;23;20020;-95
2022/11/19 15:32:47;;;;;;;;;;;;;;;;;;;;;
2022/11/19 15:35:33;;;;;;;6.43;3.28;;;1.00;99.90;;;;;;6185485;23;20021;-95
2022/11/19 15:38:35;;;;;;;6.60;3.63;;;0.10;99.90;;;;;;6186307;23;20028;-96
2022/11/19 15:41:26;;;;;;;6.63;3.95;;;0.80;99.90;;;;;;6137002;23;20019;-96
2022/11/19 15:44:00;;;;;;;7.47;3.95;;;0.80;99.90;;;;;;6164073;23;20474;-96
2022/11/19 15:47:11;;;;;;;6.97;3.47;;;0.70;99.90;;;;;;6163437;23;20024;-96
2022/11/19 15:49:41;;;;;;;5.00;3.33;;;0.70;99.90;;;;;;6187791;23;20135;-96
2022/11/19 15:52:49;;;;;;;5.68;3.72;;;0.60;99.90;;;;;;6163350;23;20111;-96
2022/11/19 15:58:29;;;;;;;7.50;3.70;;;0.50;99.90;;;;;;6188503;23;20082;-96
2022/11/19 16:00:58;;;;;;;5.63;3.85;;;0.50;99.90;;;;;;6164399;23;20095;-95
2022/11/19 16:03:59;;;;;;;;;;;;;;;;;;;;;
2022/11/19 16:06:44;;;;;;;8.02;4.55;;;0.80;99.90;;;;;;6189541;23;20066;-96
2022/11/19 16:09:23;;;;;;;5.57;3.92;;;0.50;99.90;;;;;;6141071;23;20020;-96
2022/11/19 16:22:17;;;;;;;7.28;3.90;;;0.20;99.90;;;;;;6188716;23;20017;-96
2022/11/19 16:25:00;;;;;;;7.60;3.97;;;0.10;99.90;;;;;;6140596;23;20048;-94
2022/11/19 16:27:28;;;;;;;7.03;3.92;;;0.10;99.90;;;;;;6142729;23;20058;-95
2022/11/19 16:33:37;;;;;;;8.75;4.68;;;0.10;99.90;;;;;;6188160;23;20395;-96
2022/11/19 16:36:22;;;;;;;7.57;4.05;;;0.00;99.90;;;;;;6138980;23;20128;-96
2022/11/19 16:39:11;;;;;;;6.70;3.88;;;0.00;99.90;;;;;;6164003;23;20447;-95
2022/11/19 16:42:24;;;;;;;7.53;4.65;;;-0.10;99.90;;;;;;6163500;23;20028;-95
2022/11/19 16:48:52;;;;;;;7.70;4.25;;;-0.20;99.90;;;;;;6207348;23;20027;-95
2022/11/19 16:51:51;;;;;;;8.00;4.80;;;-0.30;99.90;;;;;;6159039;23;20032;-95
2022/11/19 16:58:24;;;;;;;10.07;5.15;;;-1.10;99.90;;;;;;6184739;23;20390;-94
2022/11/19 17:00:54;;;;;;;6.72;4.25;;;-0.30;99.90;;;;;;6133387;23;20097;-95
2022/11/19 17:03:41;;;;;;;6.22;3.72;;;-0.20;99.90;;;;;;6110016;23;20013;-94
2022/11/19 17:06:20;;;;;;;6.93;3.72;;;-0.50;99.90;;;;;;6109286;23;20029;-95
2022/11/19 17:16:14;;;;;;;8.82;5.40;;;-0.80;99.90;;;;;;6157844;23;20104;-94
2022/11/19 17:18:41;;;;;;;14.23;8.38;;;-0.70;99.90;;;;;;6132472;23;20056;-92
2022/11/19 17:21:29;;;;;;;12.43;8.10;;;-0.50;99.90;;;;;;6107396;23;20435;-94
2022/11/19 17:23:55;;;;;;;13.70;8.70;;;-0.70;99.90;;;;;;6133657;23;20169;-94
2022/11/19 17:26:26;;;;;;;10.50;6.30;;;-0.60;99.90;;;;;;6108028;23;20052;-92
2022/11/19 17:29:18;;;;;;;8.20;4.70;;;-0.80;99.90;;;;;;6108522;23;20021;-93
2022/11/19 17:35:49;;;;;;;8.02;4.15;;;-0.70;99.90;;;;;;6159449;23;20668;-94
2022/11/19 17:39:08;;;;;;;;;;;;;;;;;;;;;
2022/11/19 17:45:31;;;;;;;;;;;;;;;;;;;;;
2022/11/19 17:48:57;;;;;;;;;;;;;;;;;;;;;
2022/11/19 17:51:58;;;;;;;;;;;;;;;;;;;;;
2022/11/19 17:55:43;;;;;;;;;;;;;;;;;;;;;
2022/11/19 17:59:05;;;;;;;;;;;;;;;;;;;;;
2022/11/19 18:02:18;;;;;;;8.02;4.47;;;-1.00;99.90;;;;;;6185042;23;20021;-95
2022/11/19 18:06:00;;;;;;;;;;;;;;;;;;;;;
2022/11/19 18:08:46;;;;;;;;;;;;;;;;;;;;;
2022/11/19 18:12:18;;;;;;;;;;;;;;;;;;;;;
2022/11/19 18:15:08;;;;;;;;;;;;;;;;;;;;;
2022/11/19 18:18:38;;;;;;;;;;;;;;;;;;;;;
2022/11/19 18:25:16;;;;;;;;;;;;;;;;;;;;;
2022/11/19 18:28:55;;;;;;;;;;;;;;;;;;;;;
2022/11/19 18:35:36;;;;;;;;;;;;;;;;;;;;;
2022/11/19 18:38:40;;;;;;;;;;;;;;;;;;;;;
2022/11/19 18:45:35;;;;;;;;;;;;;;;;;;;;;
2022/11/19 19:09:18;;;;;;;;;;;;;;;;;;;;;
2022/11/19 19:12:51;;;;;;;;;;;;;;;;;;;;;
2022/11/19 19:16:15;;;;;;;;;;;;;;;;;;;;;
2022/11/19 19:19:18;;;;;;;;;;;;;;;;;;;;;
2022/11/19 19:30:29;;;;;;;14.20;9.52;;;-1.90;99.90;;;;;;6091212;23;20017;-96
2022/11/19 19:33:09;;;;;;;;;;;;;;;;;;;;;
2022/11/19 19:36:20;;;;;;;;;;;;;;;;;;;;;
2022/11/19 19:39:27;;;;;;;;;;;;;;;;;;;;;
2022/11/19 19:42:16;;;;;;;;;;;;;;;;;;;;;
2022/11/19 19:45:30;;;;;;;;;;;;;;;;;;;;;
2022/11/19 19:48:34;;;;;;;;;;;;;;;;;;;;;
2022/11/19 19:51:15;;;;;;;;;;;;;;;;;;;;;
2022/11/19 19:54:31;;;;;;;;;;;;;;;;;;;;;
2022/11/19 20:01:10;;;;;;;;;;;;;;;;;;;;;
2022/11/19 20:03:59;;;;;;;;;;;;;;;;;;;;;
2022/11/19 20:06:51;;;;;;;;;;;;;;;;;;;;;
2022/11/19 20:16:17;;;;;;;14.45;8.15;;;-1.20;99.90;;;;;;6126552;23;20018;-94
2022/11/19 20:26:29;;;;;;;15.45;9.30;;;-1.40;99.90;;;;;;6187758;23;20030;-94
2022/11/19 20:28:59;;;;;;;13.45;8.13;;;-1.30;99.90;;;;;;6188250;23;20017;-94
2022/11/19 20:31:26;;;;;;;14.77;8.48;;;-1.20;99.90;;;;;;6163132;23;20023;-95
2022/11/19 20:34:31;;;;;;;13.90;8.07;;;-1.40;99.90;;;;;;6139039;23;20335;-94
2022/11/19 20:37:01;;;;;;;19.85;11.13;;;-1.40;99.90;;;;;;6187291;23;20052;-95
2022/11/19 20:39:47;;;;;;;17.17;10.10;;;-1.30;99.90;;;;;;6163509;23;20020;-95
2022/11/19 20:46:14;;;;;;;16.17;9.50;;;-1.40;99.90;;;;;;6214449;23;20343;-94
2022/11/19 20:49:01;;;;;;;17.45;9.88;;;-0.30;99.90;;;;;;6164014;23;20327;-94
2022/11/19 20:51:36;;;;;;;16.65;10.35;;;-1.40;99.90;;;;;;6161853;23;20438;-95
2022/11/19 21:01:10;;;;;;;18.10;8.82;;;-1.60;99.90;;;;;;6214346;23;20020;-94
2022/11/19 21:03:37;;;;;;;17.75;9.63;;;-1.80;99.90;;;;;;6139366;23;20547;-96
2022/11/19 21:10:03;;;;;;;17.23;9.27;;;-1.80;99.90;;;;;;6216729;23;20077;-95
2022/11/19 21:13:01;;;;;;;19.25;9.57;;;-1.60;99.90;;;;;;6140756;23;20013;-94
2022/11/19 21:15:29;;;;;;;15.35;9.15;;;-1.80;99.90;;;;;;6142981;23;20613;-95
2022/11/19 21:22:01;;;;;;;16.60;9.63;;;-1.40;99.90;;;;;;6215683;23;20041;-95
2022/11/19 21:24:58;;;;;;;19.17;10.38;;;-1.40;99.90;;;;;;6140171;23;20052;-94
2022/11/19 21:34:40;;;;;;;24.48;11.93;;;-1.20;99.90;;;;;;6189536;23;20107;-92
2022/11/19 21:41:32;;;;;;;21.15;10.57;;;-1.00;99.90;;;;;;6184572;23;20104;-94
2022/11/19 21:51:24;;;;;;;17.83;10.20;;;;;;;;;;6214383;23;20260;-94
2022/11/19 21:53:56;;;;;;;19.63;10.07;;;-1.00;99.90;;;;;;6189381;23;20020;-92
2022/11/19 21:56:48;;;;;;;16.98;9.70;;;-1.00;99.90;;;;;;6144035;23;20020;-95
2022/11/19 21:59:16;;;;;;;19.50;10.88;;;-0.60;99.90;;;;;;6166124;23;20075;-94
2022/11/19 22:06:02;;;;;;;20.00;10.37;;;0.00;99.90;;;;;;6218046;23;20087;-95
2022/11/19 22:19:25;;;;;;;18.50;10.20;;;-0.90;99.90;;;;;;6215690;23;20075;-95
2022/11/19 22:21:52;;;;;;;15.52;10.32;;;-0.80;99.90;;;;;;6163972;23;20530;-94
2022/11/19 22:24:20;;;;;;;19.30;10.73;;;-1.00;99.90;;;;;;6164695;23;20052;-95
2022/11/19 22:30:10;;;;;;;20.27;11.02;;;-0.80;99.90;;;;;;6188708;23;20096;-95
2022/11/19 22:32:55;;;;;;;17.58;10.32;;;-0.90;99.90;;;;;;6140225;23;20027;-95
2022/11/19 22:35:20;;;;;;;16.73;10.02;;;-2.20;99.90;;;;;;6141078;23;20074;-95
2022/11/19 22:38:05;;;;;;;15.52;9.65;;;-0.70;99.90;;;;;;6143339;23;20099;-94
2022/11/19 22:40:31;;;;;;;15.65;9.45;;;-0.70;99.90;;;;;;6144950;23;20118;-94
2022/11/19 22:43:03;;;;;;;15.18;8.70;;;-0.70;99.90;;;;;;6148612;23;20020;-95
2022/11/19 22:45:31;;;;;;;15.38;8.45;;;-0.90;99.90;;;;;;6145171;23;20016;-95
2022/11/19 22:48:00;;;;;;;15.93;9.18;;;-0.70;99.90;;;;;;6168637;23;20028;-94
2022/11/19 22:50:26;;;;;;;15.70;9.75;;;-1.00;99.90;;;;;;6163065;23;20016;-95
2022/11/19 22:52:53;;;;;;;19.00;10.95;;;-0.90;99.90;;;;;;6139284;23;20025;-94
2022/11/19 22:58:53;;;;;;;20.38;10.70;;;-0.80;99.90;;;;;;6188874;23;20020;-94
2022/11/19 23:01:38;;;;;;;19.85;11.23;;;-1.60;99.90;;;;;;6139915;23;20024;-95
2022/11/19 23:04:06;;;;;;;18.35;10.75;;;-0.80;99.90;;;;;;6164457;23;20023;-95
2022/11/19 23:06:55;;;;;;;20.13;10.15;;;-0.80;99.90;;;;;;6164145;23;20012;-95
2022/11/19 23:19:17;;;;;;;18.05;10.48;;;-0.50;99.90;;;;;;6187483;23;20063;-94
2022/11/19 23:21:48;;;;;;;18.80;10.85;;;-0.50;99.90;;;;;;6163353;23;20021;-95
2022/11/19 23:24:14;;;;;;;19.50;10.60;;;-0.50;99.90;;;;;;6139063;23;20098;-95
2022/11/19 23:26:41;;;;;;;15.90;9.52;;;-0.50;99.90;;;;;;6114893;23;20025;-95
2022/11/19 23:36:32;;;;;;;16.27;9.00;;;-0.30;99.90;;;;;;6215276;23;20047;-96
2022/11/19 23:39:04;;;;;;;16.90;9.98;;;-0.30;99.90;;;;;;6164451;23;20024;-95
2022/11/19 23:45:32;;;;;;;16.83;9.87;;;-1.70;99.90;;;;;;6215004;23;20095;-95
2022/11/19 23:48:00;;;;;;;17.80;10.65;;;-0.30;99.90;;;;;;6164487;23;20099;-96
2022/11/19 23:50:27;;;;;;;16.17;8.88;;;-0.30;99.90;;;;;;6163238;23;20013;-95
2022/11/19 23:53:14;;;;;;;17.35;10.05;;;-1.70;99.90;;;;;;6138953;23;20028;-95
2022/11/19 23:55:48;;;;;;;14.45;9.30;;;-0.30;99.90;;;;;;6138867;23;20020;-95
